createdAt,value
2023-05-19T00:01:18.818Z,4.00
2023-05-19T00:03:54.005Z,3.45
2023-05-19T00:06:29.344Z,2.97
2023-05-19T00:08:58.353Z,3.50
2023-05-19T00:11:26.934Z,3.13
2023-05-19T00:13:55.531Z,3.20
2023-05-19T00:16:23.809Z,2.80
2023-05-19T00:18:53.402Z,3.10
2023-05-19T00:21:21.852Z,3.78
2023-05-19T00:23:51.410Z,3.58
2023-05-19T00:26:19.609Z,3.40
2023-05-19T00:28:56.232Z,3.95
2023-05-19T00:31:24.281Z,3.22
2023-05-19T00:33:53.422Z,2.58
2023-05-19T00:36:21.477Z,3.00
2023-05-19T00:38:49.450Z,3.70
2023-05-19T00:41:18.876Z,3.33
2023-05-19T00:43:46.773Z,3.47
2023-05-19T00:46:17.403Z,3.58
2023-05-19T00:48:45.836Z,3.25
2023-05-19T00:51:17.166Z,3.10
2023-05-19T00:53:48.667Z,4.03
2023-05-19T00:56:19.658Z,3.15
2023-05-19T00:58:48.148Z,3.28
2023-05-19T01:01:17.464Z,3.75
2023-05-19T01:03:47.344Z,3.47
2023-05-19T01:06:15.371Z,3.45
2023-05-19T01:08:43.550Z,3.67
2023-05-19T01:11:11.710Z,3.88
2023-05-19T01:13:42.282Z,3.63
2023-05-19T01:16:13.683Z,4.25
2023-05-19T01:18:51.273Z,4.75
2023-05-19T01:21:36.645Z,4.80
2023-05-19T01:24:14.519Z,4.20
2023-05-19T01:27:00.136Z,4.43
2023-05-19T01:29:39.907Z,4.38
2023-05-19T01:32:10.742Z,4.30
2023-05-19T01:34:44.814Z,4.53
2023-05-19T01:37:14.562Z,3.50
2023-05-19T01:39:43.611Z,4.30
2023-05-19T01:42:12.187Z,3.95
2023-05-19T01:44:41.694Z,3.35
2023-05-19T01:47:11.506Z,4.30
2023-05-19T01:49:39.452Z,4.43
2023-05-19T01:52:07.662Z,3.70
2023-05-19T01:54:36.653Z,4.43
2023-05-19T01:57:07.821Z,4.22
2023-05-19T01:59:43.269Z,4.63
2023-05-19T02:02:17.886Z,4.15
2023-05-19T02:04:49.935Z,3.90
2023-05-19T02:07:21.320Z,4.03
2023-05-19T02:09:55.491Z,3.90
2023-05-19T02:12:27.312Z,4.00
2023-05-19T02:15:00.223Z,4.20
2023-05-19T02:17:33.282Z,3.70
2023-05-19T02:20:01.376Z,4.47
2023-05-19T02:22:29.490Z,4.72
2023-05-19T02:24:57.645Z,4.82
2023-05-19T02:27:26.421Z,4.55
2023-05-19T02:29:54.547Z,4.35
2023-05-19T02:32:22.560Z,4.55
2023-05-19T02:34:53.376Z,4.53
2023-05-19T02:37:23.881Z,4.85
2023-05-19T02:39:51.912Z,4.97
2023-05-19T02:42:20.030Z,4.20
2023-05-19T02:44:49.662Z,4.25
2023-05-19T02:47:17.647Z,4.32
2023-05-19T02:49:46.051Z,5.03
2023-05-19T02:52:15.532Z,5.05
2023-05-19T02:54:43.610Z,4.93
2023-05-19T02:57:12.002Z,4.95
2023-05-19T02:59:39.919Z,4.93
2023-05-19T03:02:07.948Z,5.10
2023-05-19T03:04:42.428Z,5.13
2023-05-19T03:07:11.259Z,5.43
2023-05-19T03:09:41.057Z,4.78
2023-05-19T03:12:09.194Z,5.40
2023-05-19T03:14:38.822Z,5.43
2023-05-19T03:17:08.459Z,5.00
2023-05-19T03:19:36.756Z,5.47
2023-05-19T03:22:05.039Z,4.85
2023-05-19T03:24:35.021Z,4.60
2023-05-19T03:27:06.168Z,5.38
2023-05-19T03:29:34.918Z,5.47
2023-05-19T03:32:03.847Z,5.55
2023-05-19T03:34:32.921Z,6.05
2023-05-19T03:37:00.961Z,5.72
2023-05-19T03:39:29.032Z,5.50
2023-05-19T03:41:57.490Z,5.50
2023-05-19T03:44:26.894Z,5.75
2023-05-19T03:46:55.338Z,5.32
2023-05-19T03:49:41.944Z,4.93
2023-05-19T03:52:09.950Z,6.07
2023-05-19T03:54:54.217Z,5.50
2023-05-19T03:57:22.601Z,5.50
2023-05-19T03:59:52.191Z,5.75
2023-05-19T04:02:21.526Z,5.82
2023-05-19T04:04:50.781Z,5.97
2023-05-19T04:07:18.914Z,5.45
2023-05-19T04:09:48.703Z,5.95
2023-05-19T04:12:16.771Z,5.97
2023-05-19T04:14:44.770Z,5.90
2023-05-19T04:17:14.212Z,5.97
2023-05-19T04:19:42.398Z,5.85
2023-05-19T04:22:10.369Z,6.28
2023-05-19T04:24:38.363Z,5.90
2023-05-19T04:27:12.035Z,6.05
2023-05-19T04:29:41.236Z,6.82
2023-05-19T04:32:10.785Z,6.40
2023-05-19T04:34:45.349Z,7.05
2023-05-19T04:37:18.343Z,6.18
2023-05-19T04:39:46.616Z,6.35
2023-05-19T04:42:19.438Z,6.43
2023-05-19T04:44:49.479Z,6.22
2023-05-19T04:47:18.099Z,5.70
2023-05-19T04:49:48.105Z,5.95
2023-05-19T04:52:21.786Z,6.75
2023-05-19T04:54:49.939Z,6.13
2023-05-19T04:57:17.974Z,7.22
2023-05-19T04:59:49.959Z,6.00
2023-05-19T05:02:18.041Z,6.05
2023-05-19T05:04:46.691Z,7.05
2023-05-19T05:07:16.532Z,7.35
2023-05-19T05:09:45.183Z,7.20
2023-05-19T05:12:14.352Z,6.60
2023-05-19T05:14:43.165Z,7.00
2023-05-19T05:17:14.096Z,6.82
2023-05-19T05:19:43.535Z,7.68
2023-05-19T05:22:11.829Z,7.53
2023-05-19T05:24:42.960Z,7.90
2023-05-19T05:27:10.977Z,8.93
2023-05-19T05:29:39.107Z,9.30
2023-05-19T05:32:09.119Z,11.93
2023-05-19T05:34:40.574Z,9.95
2023-05-19T05:37:08.696Z,9.18
2023-05-19T05:39:38.033Z,12.30
2023-05-19T05:42:09.160Z,10.77
2023-05-19T05:44:37.591Z,9.48
2023-05-19T05:47:07.199Z,9.60
2023-05-19T05:49:37.074Z,8.55
2023-05-19T05:52:06.975Z,8.38
2023-05-19T05:54:42.523Z,8.70
2023-05-19T05:57:14.625Z,12.40
2023-05-19T05:59:45.813Z,9.63
2023-05-19T06:02:14.261Z,9.25
2023-05-19T06:04:42.447Z,9.05
2023-05-19T06:07:10.579Z,9.30
2023-05-19T06:09:40.008Z,9.57
2023-05-19T06:12:10.167Z,9.00
2023-05-19T06:14:47.212Z,11.15
2023-05-19T06:17:38.377Z,9.88
2023-05-19T06:20:07.070Z,10.75
2023-05-19T06:22:35.781Z,10.75
2023-05-19T06:25:05.187Z,10.07
2023-05-19T06:27:35.015Z,10.48
2023-05-19T06:30:08.848Z,9.63
2023-05-19T06:32:46.187Z,9.88
2023-05-19T06:35:14.700Z,9.93
2023-05-19T06:37:43.210Z,10.32
2023-05-19T06:40:12.838Z,10.00
2023-05-19T06:42:42.650Z,10.80
2023-05-19T06:45:24.766Z,12.38
2023-05-19T06:47:54.236Z,11.55
2023-05-19T06:50:22.509Z,13.55
2023-05-19T06:52:51.409Z,11.80
2023-05-19T06:55:19.785Z,13.75
2023-05-19T06:57:50.041Z,12.35
2023-05-19T07:00:22.116Z,11.75
2023-05-19T07:02:54.723Z,11.43
2023-05-19T07:05:22.947Z,11.13
2023-05-19T07:07:55.442Z,12.43
2023-05-19T07:10:27.417Z,12.63
2023-05-19T07:12:56.484Z,12.23
2023-05-19T07:15:26.843Z,11.43
2023-05-19T07:17:56.642Z,11.23
2023-05-19T07:20:25.627Z,11.98
2023-05-19T07:22:53.644Z,11.18
2023-05-19T07:25:21.746Z,11.15
2023-05-19T07:27:50.130Z,11.70
2023-05-19T07:30:18.141Z,12.38
2023-05-19T07:32:46.315Z,10.77
2023-05-19T07:35:16.373Z,10.80
2023-05-19T07:37:44.780Z,11.50
2023-05-19T07:40:13.319Z,11.50
2023-05-19T07:42:41.741Z,11.07
2023-05-19T07:45:10.425Z,10.75
2023-05-19T07:47:39.657Z,10.50
2023-05-19T07:50:08.371Z,9.02
2023-05-19T07:52:40.400Z,10.13
2023-05-19T07:55:09.084Z,9.85
2023-05-19T07:57:37.161Z,8.80
2023-05-19T08:00:07.780Z,8.50
2023-05-19T08:02:39.808Z,10.43
2023-05-19T08:05:09.284Z,8.80
2023-05-19T08:07:39.131Z,9.35
2023-05-19T08:10:07.455Z,9.70
2023-05-19T08:12:35.588Z,9.68
2023-05-19T08:15:03.834Z,9.75
2023-05-19T08:17:32.007Z,8.90
2023-05-19T08:20:00.435Z,9.82
2023-05-19T08:22:28.444Z,6.95
2023-05-19T08:24:58.217Z,7.65
2023-05-19T08:27:26.244Z,7.53
2023-05-19T08:29:55.432Z,7.43
2023-05-19T08:32:24.011Z,7.38
2023-05-19T08:34:52.080Z,7.85
2023-05-19T08:37:25.899Z,6.65
2023-05-19T08:39:54.042Z,6.25
2023-05-19T08:42:23.563Z,4.80
2023-05-19T08:44:51.731Z,4.90
2023-05-19T08:47:20.121Z,6.22
2023-05-19T08:49:51.873Z,5.50
2023-05-19T08:52:24.857Z,4.30
2023-05-19T08:54:55.086Z,4.70
2023-05-19T08:57:25.749Z,4.20
2023-05-19T08:59:55.226Z,4.78
2023-05-19T09:02:23.626Z,5.28
2023-05-19T09:04:52.078Z,3.95
2023-05-19T09:07:21.380Z,4.30
2023-05-19T09:09:50.298Z,4.90
2023-05-19T09:12:18.444Z,4.20
2023-05-19T09:14:48.039Z,4.82
2023-05-19T09:17:16.961Z,3.95
2023-05-19T09:19:48.308Z,4.15
2023-05-19T09:22:19.190Z,4.00
2023-05-19T09:24:48.216Z,4.47
2023-05-19T09:27:22.886Z,4.20
2023-05-19T09:29:52.898Z,4.75
2023-05-19T09:32:27.657Z,4.63
2023-05-19T09:34:56.025Z,4.43
2023-05-19T09:37:24.408Z,4.00
2023-05-19T09:39:53.300Z,4.60
2023-05-19T09:42:25.423Z,5.35
2023-05-19T09:45:00.144Z,4.43
2023-05-19T09:47:29.145Z,4.72
2023-05-19T09:49:58.839Z,4.68
2023-05-19T09:52:27.462Z,4.68
2023-05-19T09:54:56.173Z,5.22
2023-05-19T09:57:27.079Z,4.65
2023-05-19T09:59:58.185Z,5.68
2023-05-19T10:02:27.323Z,5.13
2023-05-19T10:04:57.197Z,4.15
2023-05-19T10:07:25.773Z,4.35
2023-05-19T10:09:55.757Z,4.32
2023-05-19T10:12:25.708Z,4.30
2023-05-19T10:14:58.075Z,4.47
2023-05-19T10:17:28.518Z,4.70
2023-05-19T10:19:56.496Z,4.47
2023-05-19T10:22:24.483Z,4.30
2023-05-19T10:24:52.646Z,4.40
2023-05-19T10:27:21.068Z,4.90
2023-05-19T10:29:50.482Z,4.72
2023-05-19T10:32:22.441Z,4.32
2023-05-19T10:35:10.352Z,4.88
2023-05-19T10:37:46.846Z,3.90
2023-05-19T10:40:20.383Z,4.75
2023-05-19T10:42:55.259Z,7.13
2023-05-19T10:45:25.851Z,4.40
2023-05-19T10:47:55.791Z,3.65
2023-05-19T10:50:23.775Z,3.47
2023-05-19T10:52:54.343Z,3.78
2023-05-19T10:55:37.792Z,3.40
2023-05-19T10:58:05.936Z,3.60
2023-05-19T11:00:34.046Z,2.80
2023-05-19T11:03:15.399Z,3.22
2023-05-19T11:05:45.780Z,3.80
2023-05-19T11:08:14.081Z,3.78
2023-05-19T11:10:45.393Z,3.38
2023-05-19T11:13:22.493Z,3.55
2023-05-19T11:15:51.125Z,3.03
2023-05-19T11:18:20.754Z,3.08
2023-05-19T11:20:59.269Z,2.97
2023-05-19T11:23:27.488Z,3.90
2023-05-19T11:25:55.671Z,3.38
2023-05-19T11:28:26.314Z,2.95
2023-05-19T11:30:57.891Z,2.17
2023-05-19T11:33:27.875Z,3.10
2023-05-19T11:35:58.128Z,3.15
2023-05-19T11:38:26.501Z,3.22
2023-05-19T11:40:55.899Z,3.22
2023-05-19T11:43:24.429Z,2.85
2023-05-19T11:45:52.808Z,2.30
2023-05-19T11:48:22.065Z,2.72
2023-05-19T11:50:51.648Z,2.92
2023-05-19T11:53:21.032Z,2.58
2023-05-19T11:55:50.047Z,2.50
2023-05-19T11:58:18.334Z,2.85
2023-05-19T12:00:48.033Z,2.40
2023-05-19T12:03:17.632Z,2.35
2023-05-19T12:05:47.585Z,2.50
2023-05-19T12:08:18.720Z,3.08
2023-05-19T12:10:56.867Z,2.90
2023-05-19T12:13:25.169Z,3.25
2023-05-19T12:15:53.810Z,2.22
2023-05-19T12:18:22.833Z,2.65
2023-05-19T12:20:51.133Z,3.03
2023-05-19T12:23:20.812Z,3.42
2023-05-19T12:25:49.509Z,3.75
2023-05-19T12:28:17.670Z,2.47
2023-05-19T12:30:48.657Z,3.13
2023-05-19T12:33:17.196Z,3.05
2023-05-19T12:35:46.291Z,2.88
2023-05-19T12:38:15.433Z,2.58
2023-05-19T12:40:45.109Z,2.55
2023-05-19T12:43:20.720Z,2.75
2023-05-19T12:45:48.946Z,2.40
2023-05-19T12:48:17.255Z,2.45
2023-05-19T12:50:45.946Z,2.78
2023-05-19T12:53:14.774Z,3.38
2023-05-19T12:55:45.230Z,2.85
2023-05-19T12:58:14.131Z,2.47
2023-05-19T13:00:42.767Z,2.58
2023-05-19T13:03:16.984Z,2.50
2023-05-19T13:05:46.568Z,3.45
2023-05-19T13:08:16.290Z,2.75
2023-05-19T13:10:46.461Z,2.40
2023-05-19T13:13:14.804Z,2.78
2023-05-19T13:15:43.416Z,2.45
2023-05-19T13:18:12.987Z,2.67
2023-05-19T13:20:42.117Z,2.20
2023-05-19T13:23:13.784Z,2.50
2023-05-19T13:25:42.917Z,2.35
2023-05-19T13:28:12.384Z,2.47
2023-05-19T13:30:42.052Z,2.47
2023-05-19T13:33:10.464Z,2.17
2023-05-19T13:35:39.374Z,2.10
2023-05-19T13:38:08.230Z,2.15
2023-05-19T13:40:37.659Z,2.60
2023-05-19T13:43:06.017Z,2.22
2023-05-19T13:45:35.738Z,2.55
2023-05-19T13:48:04.284Z,2.40
2023-05-19T13:50:32.555Z,2.20
2023-05-19T13:53:00.573Z,2.30
2023-05-19T13:55:28.938Z,2.58
2023-05-19T13:57:56.980Z,2.00
2023-05-19T14:00:25.462Z,2.35
2023-05-19T14:02:55.230Z,2.08
2023-05-19T14:05:23.305Z,2.53
2023-05-19T14:07:54.162Z,2.50
2023-05-19T14:10:22.466Z,2.83
2023-05-19T14:13:25.187Z,8.95
2023-05-19T14:15:39.418Z,2.28
2023-05-19T14:18:09.110Z,2.20
2023-05-19T14:20:38.167Z,2.92
2023-05-19T14:23:06.883Z,2.03
2023-05-19T14:25:35.516Z,2.20
2023-05-19T14:28:03.820Z,3.22
2023-05-19T14:30:32.117Z,2.47
2023-05-19T14:33:00.596Z,3.00
2023-05-19T14:35:30.280Z,2.58
2023-05-19T14:37:58.461Z,2.10
2023-05-19T14:40:27.003Z,2.95
2023-05-19T14:42:55.210Z,2.47
2023-05-19T14:45:23.113Z,2.60
2023-05-19T14:47:51.146Z,2.50
2023-05-19T14:50:19.207Z,2.05
2023-05-19T14:52:48.657Z,2.28
2023-05-19T14:55:16.609Z,2.72
2023-05-19T14:57:44.804Z,2.22
2023-05-19T15:00:13.281Z,2.53
2023-05-19T15:02:42.088Z,2.72
2023-05-19T15:05:10.345Z,2.83
2023-05-19T15:07:39.586Z,2.53
2023-05-19T15:10:09.777Z,2.47
2023-05-19T15:12:38.124Z,1.98
2023-05-19T15:15:06.537Z,2.53
2023-05-19T15:17:34.601Z,2.72
2023-05-19T15:20:02.760Z,2.00
2023-05-19T15:22:30.795Z,2.28
2023-05-19T15:24:59.412Z,2.45
2023-05-19T15:27:31.108Z,2.30
2023-05-19T15:29:59.793Z,2.45
2023-05-19T15:32:27.868Z,2.60
2023-05-19T15:34:56.041Z,2.38
2023-05-19T15:37:24.357Z,2.40
2023-05-19T15:39:55.048Z,2.60
2023-05-19T15:42:23.329Z,3.72
2023-05-19T15:44:52.650Z,3.00
2023-05-19T15:47:20.580Z,2.45
2023-05-19T15:49:48.692Z,2.83
2023-05-19T15:52:16.737Z,2.78
2023-05-19T15:54:44.792Z,2.80
2023-05-19T15:57:13.741Z,3.40
2023-05-19T15:59:41.766Z,2.63
2023-05-19T16:02:11.256Z,2.38
2023-05-19T16:04:39.843Z,2.67
2023-05-19T16:07:07.841Z,2.65
2023-05-19T16:09:35.804Z,3.03
2023-05-19T16:12:05.195Z,2.75
2023-05-19T16:14:37.103Z,3.08
2023-05-19T16:17:05.235Z,3.03
2023-05-19T16:19:34.619Z,2.90
2023-05-19T16:22:03.279Z,2.60
2023-05-19T16:24:34.523Z,3.75
2023-05-19T16:27:02.588Z,3.60
2023-05-19T16:29:30.798Z,3.05
2023-05-19T16:31:59.020Z,3.63
2023-05-19T16:34:28.634Z,2.70
2023-05-19T16:36:59.674Z,2.90
2023-05-19T16:39:27.831Z,2.92
2023-05-19T16:41:56.222Z,3.10
2023-05-19T16:44:24.701Z,3.30
2023-05-19T16:46:52.666Z,4.05
2023-05-19T16:49:20.884Z,3.08
2023-05-19T16:51:51.189Z,3.10
2023-05-19T16:54:21.071Z,3.00
2023-05-19T16:56:49.105Z,3.00
2023-05-19T16:59:17.429Z,3.20
2023-05-19T17:01:45.467Z,2.97
2023-05-19T17:04:14.052Z,3.15
2023-05-19T17:06:42.061Z,3.05
2023-05-19T17:09:10.130Z,2.75
2023-05-19T17:11:41.214Z,4.78
2023-05-19T17:14:09.401Z,4.88
2023-05-19T17:16:38.172Z,4.13
2023-05-19T17:19:06.387Z,3.25
2023-05-19T17:21:34.399Z,3.40
2023-05-19T17:24:02.414Z,3.25
2023-05-19T17:26:30.540Z,3.40
2023-05-19T17:29:00.027Z,3.40
2023-05-19T17:31:28.035Z,3.55
2023-05-19T17:33:56.026Z,3.78
2023-05-19T17:36:24.284Z,3.50
2023-05-19T17:38:53.547Z,25.67
2023-05-19T17:41:21.983Z,6.32
2023-05-19T17:43:50.040Z,3.90
2023-05-19T17:46:19.356Z,3.70
2023-05-19T17:48:47.329Z,4.85
2023-05-19T17:51:15.665Z,4.15
2023-05-19T17:53:43.859Z,4.03
2023-05-19T17:56:12.879Z,4.00
2023-05-19T17:58:41.546Z,5.00
2023-05-19T18:01:10.155Z,3.90
2023-05-19T18:03:40.148Z,4.30
2023-05-19T18:06:08.627Z,4.53
2023-05-19T18:08:38.282Z,4.38
2023-05-19T18:11:06.850Z,4.32
2023-05-19T18:13:34.758Z,4.43
2023-05-19T18:16:03.668Z,4.63
2023-05-19T18:18:31.723Z,4.43
2023-05-19T18:21:01.195Z,4.80
2023-05-19T18:23:29.589Z,4.28
2023-05-19T18:25:58.267Z,5.88
2023-05-19T18:28:26.563Z,5.95
2023-05-19T18:30:59.872Z,6.93
2023-05-19T18:33:28.763Z,6.43
2023-05-19T18:35:59.933Z,6.03
2023-05-19T18:38:29.436Z,7.07
2023-05-19T18:40:58.120Z,5.97
2023-05-19T18:43:26.348Z,6.63
2023-05-19T18:45:54.323Z,6.00
2023-05-19T18:48:22.803Z,7.10
2023-05-19T18:50:53.563Z,6.53
2023-05-19T18:53:22.454Z,5.60
2023-05-19T18:55:52.034Z,6.75
2023-05-19T18:58:20.804Z,6.93
2023-05-19T19:00:49.057Z,7.40
2023-05-19T19:03:17.660Z,7.47
2023-05-19T19:05:46.396Z,13.27
2023-05-19T19:08:14.456Z,25.38
2023-05-19T19:10:44.338Z,33.15
2023-05-19T19:13:13.864Z,36.20
2023-05-19T19:15:42.238Z,11.95
2023-05-19T19:18:10.367Z,7.30
2023-05-19T19:20:40.427Z,7.80
2023-05-19T19:23:08.549Z,8.23
2023-05-19T19:25:36.828Z,7.40
2023-05-19T19:28:04.931Z,6.72
2023-05-19T19:30:34.681Z,6.80
2023-05-19T19:33:04.719Z,7.38
2023-05-19T19:35:34.483Z,7.07
2023-05-19T19:38:02.555Z,6.57
2023-05-19T19:40:30.922Z,6.50
2023-05-19T19:42:59.000Z,7.85
2023-05-19T19:45:27.073Z,6.57
2023-05-19T19:47:57.100Z,6.35
2023-05-19T19:50:25.414Z,6.53
2023-05-19T19:52:53.426Z,6.45
2023-05-19T19:55:21.768Z,6.57
2023-05-19T19:57:51.245Z,6.45
2023-05-19T20:00:19.761Z,6.78
2023-05-19T20:03:03.437Z,6.85
2023-05-19T20:05:34.735Z,6.85
2023-05-19T20:08:02.704Z,7.30
2023-05-19T20:10:31.325Z,7.57
2023-05-19T20:12:59.679Z,7.43
2023-05-19T20:15:28.027Z,7.65
2023-05-19T20:17:56.356Z,6.90
2023-05-19T20:20:24.429Z,6.93
2023-05-19T20:22:53.862Z,6.60
2023-05-19T20:25:22.012Z,6.38
2023-05-19T20:27:50.215Z,6.25
2023-05-19T20:30:18.485Z,5.57
2023-05-19T20:32:47.233Z,5.88
2023-05-19T20:35:16.097Z,6.75
2023-05-19T20:37:44.196Z,6.25
2023-05-19T20:40:14.277Z,5.80
2023-05-19T20:42:42.467Z,6.57
2023-05-19T20:45:10.674Z,7.05
2023-05-19T20:47:39.051Z,7.25
2023-05-19T20:50:07.695Z,7.22
2023-05-19T20:52:36.633Z,7.60
2023-05-19T20:55:05.275Z,9.93
2023-05-19T20:57:35.022Z,9.85
2023-05-19T21:00:03.275Z,10.27
2023-05-19T21:02:31.234Z,7.25
2023-05-19T21:04:59.416Z,7.32
2023-05-19T21:07:28.378Z,8.18
2023-05-19T21:09:57.750Z,6.53
2023-05-19T21:12:28.680Z,6.50
2023-05-19T21:14:58.660Z,7.03
2023-05-19T21:17:29.657Z,6.50
2023-05-19T21:19:59.674Z,6.13
2023-05-19T21:22:28.007Z,6.57
2023-05-19T21:24:56.244Z,6.97
2023-05-19T21:27:24.371Z,6.30
2023-05-19T21:29:52.919Z,6.20
2023-05-19T21:32:23.840Z,6.40
2023-05-19T21:34:51.872Z,6.55
2023-05-19T21:37:21.250Z,6.25
2023-05-19T21:39:49.430Z,6.18
2023-05-19T21:42:17.455Z,6.53
2023-05-19T21:44:45.827Z,5.38
2023-05-19T21:47:14.218Z,6.38
2023-05-19T21:49:43.772Z,6.75
2023-05-19T21:52:13.059Z,6.63
2023-05-19T21:54:41.029Z,5.55
2023-05-19T21:57:11.227Z,6.10
2023-05-19T21:59:39.536Z,5.68
2023-05-19T22:02:07.957Z,6.38
2023-05-19T22:04:37.811Z,5.72
2023-05-19T22:07:10.292Z,5.72
2023-05-19T22:09:39.073Z,5.40
2023-05-19T22:12:07.658Z,5.15
2023-05-19T22:14:38.295Z,5.95
2023-05-19T22:17:06.476Z,5.47
2023-05-19T22:19:34.494Z,5.93
2023-05-19T22:22:13.109Z,5.80
2023-05-19T22:24:44.420Z,6.05
2023-05-19T22:27:12.473Z,6.10
2023-05-19T22:29:40.491Z,7.22
2023-05-19T22:32:12.073Z,6.40
2023-05-19T22:34:40.471Z,6.15
2023-05-19T22:37:08.436Z,5.53
2023-05-19T22:39:36.610Z,5.30
2023-05-19T22:42:09.417Z,5.07
2023-05-19T22:44:38.024Z,5.57
2023-05-19T22:47:06.981Z,9.15
2023-05-19T22:49:34.898Z,9.05
2023-05-19T22:52:03.159Z,6.30
2023-05-19T22:54:31.536Z,6.35
2023-05-19T22:56:59.612Z,5.47
2023-05-19T22:59:29.146Z,5.45
2023-05-19T23:01:57.396Z,5.82
2023-05-19T23:04:25.870Z,5.43
2023-05-19T23:06:54.140Z,4.80
2023-05-19T23:09:22.151Z,5.70
2023-05-19T23:11:50.351Z,5.95
2023-05-19T23:14:19.292Z,5.55
2023-05-19T23:16:48.793Z,5.40
2023-05-19T23:19:17.158Z,5.93
2023-05-19T23:21:46.264Z,6.55
2023-05-19T23:24:14.515Z,5.63
2023-05-19T23:26:44.150Z,5.95
2023-05-19T23:29:12.572Z,6.38
2023-05-19T23:31:41.184Z,6.78
2023-05-19T23:34:10.892Z,5.75
2023-05-19T23:36:39.217Z,6.22
2023-05-19T23:39:08.892Z,5.32
2023-05-19T23:41:40.250Z,6.00
2023-05-19T23:44:09.311Z,5.85
2023-05-19T23:46:37.827Z,6.25
2023-05-19T23:49:06.361Z,6.32
2023-05-19T23:51:37.942Z,5.93
2023-05-19T23:54:06.090Z,5.57
2023-05-19T23:56:34.295Z,6.57
2023-05-19T23:59:02.559Z,6.00
